Time;durP1;ratioP1;P1;durP2;ratioP2;P2;SDS_P1;SDS_P2;PMS_P1;PMS_P2;Temp;Humidity;BMP_temperature;BMP_pressure;BME280_temperature;BME280_humidity;BME280_pressure;Samples;Min_cycle;Max_cycle;Signal;HPM_P1;HPM_P2
2021/03/10 00:01:58;;;;;;;37.13;21.27;;;2.20;99.90;;;;;;5070169;28;20939;-71
2021/03/10 00:04:25;;;;;;;34.20;21.80;;;2.10;99.90;;;;;;5070976;28;20477;-71
2021/03/10 00:06:51;;;;;;;35.03;19.97;;;2.20;99.90;;;;;;5071205;28;20826;-71
2021/03/10 00:09:19;;;;;;;30.23;19.33;;;2.20;99.90;;;;;;5070076;28;20497;-71
2021/03/10 00:11:46;;;;;;;33.10;20.90;;;2.20;99.90;;;;;;5070693;28;20437;-70
2021/03/10 00:14:13;;;;;;;33.43;19.97;;;2.30;99.90;;;;;;5070801;28;20426;-71
2021/03/10 00:16:41;;;;;;;29.93;19.90;;;2.20;99.90;;;;;;5070013;28;20442;-71
2021/03/10 00:19:07;;;;;;;35.47;19.73;;;2.10;99.90;;;;;;5070863;28;20496;-71
2021/03/10 00:21:34;;;;;;;33.00;19.80;;;2.20;99.90;;;;;;5069872;28;20441;-71
2021/03/10 00:24:01;;;;;;;34.80;20.93;;;2.00;99.90;;;;;;5071441;28;20840;-71
2021/03/10 00:26:31;;;;;;;31.50;19.90;;;2.00;99.90;;;;;;5074073;28;20805;-70
2021/03/10 00:28:58;;;;;;;36.53;21.60;;;1.90;99.90;;;;;;5075399;28;20470;-71
2021/03/10 00:31:25;;;;;;;32.33;20.73;;;1.80;99.90;;;;;;5075601;28;20432;-71
2021/03/10 00:33:53;;;;;;;30.50;21.00;;;1.80;99.90;;;;;;5075509;28;20426;-71
2021/03/10 00:36:23;;;;;;;30.83;20.67;;;1.70;99.90;;;;;;5074323;28;20449;-70
2021/03/10 00:38:50;;;;;;;32.07;20.37;;;1.70;99.90;;;;;;5074735;28;20488;-71
2021/03/10 00:41:17;;;;;;;32.37;19.57;;;1.60;99.90;;;;;;5074327;28;20428;-70
2021/03/10 00:43:43;;;;;;;33.97;20.80;;;1.60;99.90;;;;;;5074615;28;20847;-70
2021/03/10 00:46:10;;;;;;;37.20;21.50;;;1.50;99.90;;;;;;5074202;28;20426;-71
2021/03/10 00:48:37;;;;;;;36.57;21.07;;;1.50;99.90;;;;;;5074442;28;20472;-71
2021/03/10 00:51:05;;;;;;;32.93;22.00;;;1.40;99.90;;;;;;5073874;28;20449;-71
2021/03/10 00:53:32;;;;;;;39.10;21.83;;;1.40;99.90;;;;;;5074089;28;20941;-71
2021/03/10 00:55:58;;;;;;;34.67;22.07;;;1.40;99.90;;;;;;5073804;28;20426;-71
2021/03/10 00:58:28;;;;;;;36.63;21.00;;;1.40;99.90;;;;;;5073786;28;20464;-71
2021/03/10 01:00:55;;;;;;;39.50;21.80;;;1.30;99.90;;;;;;5073405;28;20465;-71
2021/03/10 01:03:21;;;;;;;35.20;21.60;;;1.30;99.90;;;;;;5073579;28;20469;-70
2021/03/10 01:05:48;;;;;;;36.77;23.10;;;1.20;99.90;;;;;;5073306;28;20445;-71
2021/03/10 01:08:17;;;;;;;38.07;21.10;;;1.20;99.90;;;;;;5074538;28;20438;-71
2021/03/10 01:10:48;;;;;;;33.13;20.50;;;1.30;99.90;;;;;;5074493;28;20506;-70
2021/03/10 01:13:15;;;;;;;31.87;19.47;;;1.30;99.90;;;;;;5074410;28;20462;-71
2021/03/10 01:15:42;;;;;;;33.37;21.37;;;1.20;99.90;;;;;;5074055;28;20491;-71
2021/03/10 01:18:08;;;;;;;32.73;20.33;;;1.20;99.90;;;;;;5073798;28;20422;-71
2021/03/10 01:20:35;;;;;;;37.53;21.87;;;1.20;99.90;;;;;;5073664;28;20426;-71
2021/03/10 01:23:02;;;;;;;31.67;20.13;;;1.20;99.90;;;;;;5073842;28;20422;-71
2021/03/10 01:25:30;;;;;;;33.87;20.57;;;1.20;99.90;;;;;;5073737;28;20448;-71
2021/03/10 01:27:58;;;;;;;33.23;19.83;;;1.20;99.90;;;;;;5074296;28;20438;-70
2021/03/10 01:30:25;;;;;;;34.23;20.00;;;1.20;99.90;;;;;;5074411;28;20426;-71
2021/03/10 01:32:52;;;;;;;29.93;19.30;;;1.30;99.90;;;;;;5074690;28;20806;-71
2021/03/10 01:35:20;;;;;;;34.80;20.40;;;1.30;99.90;;;;;;5073811;28;20803;-71
2021/03/10 01:37:46;;;;;;;34.43;20.77;;;1.30;99.90;;;;;;5072117;28;20450;-71
2021/03/10 01:40:15;;;;;;;30.47;19.50;;;1.30;99.90;;;;;;5073306;28;20446;-71
2021/03/10 01:42:43;;;;;;;30.67;19.67;;;1.20;99.90;;;;;;5073308;28;20506;-70
2021/03/10 01:45:11;;;;;;;33.07;20.30;;;1.20;99.90;;;;;;5073553;28;20528;-71
2021/03/10 01:47:41;;;;;;;31.53;19.20;;;1.30;99.90;;;;;;5073520;28;20457;-71
2021/03/10 01:50:09;;;;;;;27.30;16.53;;;1.20;99.90;;;;;;5072538;28;20547;-71
2021/03/10 01:52:36;;;;;;;25.37;16.20;;;1.20;99.90;;;;;;5073393;28;20450;-70
2021/03/10 01:55:04;;;;;;;29.13;16.97;;;1.20;99.90;;;;;;5073542;28;20943;-71
2021/03/10 01:57:31;;;;;;;27.10;15.67;;;1.20;99.90;;;;;;5072966;28;20509;-71
2021/03/10 01:59:59;;;;;;;30.20;16.83;;;1.20;99.90;;;;;;5073129;28;20470;-71
2021/03/10 02:02:26;;;;;;;29.27;17.53;;;1.20;99.90;;;;;;5072143;28;20456;-71
2021/03/10 02:04:53;;;;;;;28.20;15.60;;;1.20;99.90;;;;;;5073204;28;21151;-71
2021/03/10 02:07:26;;;;;;;27.50;15.60;;;1.10;99.90;;;;;;5073198;28;20450;-71
2021/03/10 02:10:04;;;;;;;27.27;15.90;;;1.20;99.90;;;;;;5072828;28;20873;-70
2021/03/10 02:12:36;;;;;;;29.93;17.53;;;1.20;99.90;;;;;;5072622;28;20541;-71
2021/03/10 02:15:13;;;;;;;30.13;17.77;;;1.20;99.90;;;;;;5052670;28;20427;-71
2021/03/10 02:17:44;;;;;;;29.07;18.80;;;1.20;99.90;;;;;;5052833;28;20442;-70
2021/03/10 02:20:28;;;;;;;28.37;19.00;;;1.20;99.90;;;;;;5052903;28;20486;-71
2021/03/10 02:23:16;;;;;;;27.50;17.23;;;1.30;99.90;;;;;;5053138;28;21099;-70
2021/03/10 02:25:59;;;;;;;29.07;19.03;;;1.30;99.90;;;;;;5052661;28;20920;-70
2021/03/10 02:28:27;;;;;;;30.03;18.63;;;1.30;99.90;;;;;;5052945;28;20489;-70
2021/03/10 02:30:56;;;;;;;29.77;18.00;;;1.40;99.90;;;;;;5052768;28;20430;-71
2021/03/10 02:33:26;;;;;;;27.20;16.80;;;1.40;99.90;;;;;;5059581;28;20999;-71
2021/03/10 02:35:57;;;;;;;29.70;18.37;;;1.50;99.90;;;;;;5072903;28;20455;-71
2021/03/10 02:38:25;;;;;;;29.67;17.00;;;1.50;99.90;;;;;;5072677;28;20538;-70
2021/03/10 02:40:53;;;;;;;30.50;18.10;;;1.40;99.90;;;;;;5071955;28;20448;-71
2021/03/10 02:43:21;;;;;;;32.07;18.10;;;1.50;99.90;;;;;;5072217;28;20783;-71
2021/03/10 02:45:51;;;;;;;34.20;19.00;;;1.50;99.90;;;;;;5072371;28;20513;-71
2021/03/10 02:48:18;;;;;;;26.53;16.90;;;1.50;99.90;;;;;;5071863;28;20462;-70
2021/03/10 02:50:45;;;;;;;40.83;18.87;;;1.50;99.90;;;;;;5070772;28;20445;-71
2021/03/10 02:53:17;;;;;;;30.83;18.07;;;1.50;99.90;;;;;;5071845;28;20441;-70
2021/03/10 02:55:43;;;;;;;28.83;17.50;;;1.50;99.90;;;;;;5071381;28;20437;-71
2021/03/10 02:58:11;;;;;;;31.40;18.00;;;1.50;99.90;;;;;;5071508;28;20438;-71
2021/03/10 03:00:39;;;;;;;29.57;17.77;;;1.50;99.90;;;;;;5071715;28;20807;-71
2021/03/10 03:03:07;;;;;;;30.37;17.30;;;1.60;99.90;;;;;;5071715;28;20433;-71
2021/03/10 03:05:35;;;;;;;27.10;16.67;;;1.60;99.90;;;;;;5072035;28;20499;-71
2021/03/10 03:08:03;;;;;;;29.17;16.90;;;1.60;99.90;;;;;;5071756;28;20525;-71
2021/03/10 03:10:32;;;;;;;31.47;18.37;;;1.60;99.90;;;;;;5071887;28;20442;-70
2021/03/10 03:13:01;;;;;;;24.83;15.43;;;1.70;99.90;;;;;;5071066;28;20432;-71
2021/03/10 03:15:30;;;;;;;37.47;17.60;;;1.60;99.90;;;;;;5071321;28;20441;-70
2021/03/10 03:17:57;;;;;;;29.83;17.97;;;1.60;99.90;;;;;;5072033;28;20543;-70
2021/03/10 03:20:25;;;;;;;30.60;16.60;;;1.50;99.90;;;;;;5072129;28;20448;-71
2021/03/10 03:22:54;;;;;;;26.70;16.97;;;1.50;99.90;;;;;;5070584;28;20442;-71
2021/03/10 03:25:24;;;;;;;28.80;16.50;;;1.60;99.90;;;;;;5071646;28;20908;-70
2021/03/10 03:27:54;;;;;;;30.37;17.43;;;1.50;99.90;;;;;;5071743;28;20445;-71
2021/03/10 03:30:24;;;;;;;29.90;16.27;;;1.50;99.90;;;;;;5071348;28;20430;-71
2021/03/10 03:32:53;;;;;;;30.77;16.23;;;1.50;99.90;;;;;;5071487;28;20426;-71
2021/03/10 03:35:20;;;;;;;32.40;19.20;;;1.40;99.90;;;;;;5071547;28;20456;-70
2021/03/10 03:37:51;;;;;;;26.53;16.50;;;1.40;99.90;;;;;;5070780;28;20988;-70
2021/03/10 03:40:19;;;;;;;28.67;16.83;;;1.50;99.90;;;;;;5071009;28;21089;-71
2021/03/10 03:42:47;;;;;;;26.20;16.17;;;1.50;99.90;;;;;;5071200;28;20438;-71
2021/03/10 03:45:16;;;;;;;36.03;16.10;;;1.50;99.90;;;;;;5070884;28;20477;-71
2021/03/10 03:47:43;;;;;;;29.17;19.27;;;1.40;99.90;;;;;;5071421;28;20442;-71
2021/03/10 03:50:11;;;;;;;26.40;15.83;;;1.50;99.90;;;;;;5070152;28;20458;-71
2021/03/10 03:52:41;;;;;;;28.03;17.73;;;1.50;99.90;;;;;;5071207;28;20756;-71
2021/03/10 03:55:11;;;;;;;28.67;18.30;;;1.50;99.90;;;;;;5070955;28;20438;-71
2021/03/10 03:57:38;;;;;;;34.47;18.53;;;1.50;99.90;;;;;;5070989;28;20496;-71
2021/03/10 04:00:07;;;;;;;30.50;17.77;;;1.50;99.90;;;;;;5069776;28;20469;-71
2021/03/10 04:02:34;;;;;;;31.10;18.87;;;1.60;99.90;;;;;;5071211;28;20422;-71
2021/03/10 04:05:01;;;;;;;33.20;17.17;;;1.60;99.90;;;;;;5070692;28;20465;-71
2021/03/10 04:07:27;;;;;;;31.00;19.63;;;1.60;99.90;;;;;;5071021;28;20456;-71
2021/03/10 04:09:54;;;;;;;28.67;17.80;;;1.60;99.90;;;;;;5070035;28;20457;-71
2021/03/10 04:12:22;;;;;;;27.87;16.57;;;1.70;99.90;;;;;;5070730;28;20426;-71
2021/03/10 04:14:48;;;;;;;37.27;17.77;;;1.70;99.90;;;;;;5070683;28;20814;-71
2021/03/10 04:17:15;;;;;;;32.80;19.80;;;1.60;99.90;;;;;;5071007;28;20894;-71
2021/03/10 04:19:42;;;;;;;31.43;16.87;;;1.70;99.90;;;;;;5070812;28;20539;-70
2021/03/10 04:22:09;;;;;;;33.70;19.57;;;1.70;99.90;;;;;;5070527;28;20436;-71
2021/03/10 04:24:36;;;;;;;26.97;17.77;;;1.70;99.90;;;;;;5071026;28;20473;-71
2021/03/10 04:27:03;;;;;;;34.17;18.67;;;1.70;99.90;;;;;;5071042;28;20422;-71
2021/03/10 04:29:30;;;;;;;33.13;17.27;;;1.70;99.90;;;;;;5070712;28;20497;-71
2021/03/10 04:31:57;;;;;;;30.37;17.50;;;1.70;99.90;;;;;;5070697;28;20445;-71
2021/03/10 04:34:24;;;;;;;30.60;18.63;;;1.80;99.90;;;;;;5070809;28;20426;-71
2021/03/10 04:36:50;;;;;;;30.63;17.20;;;1.70;99.90;;;;;;5070438;28;20430;-71
2021/03/10 04:39:17;;;;;;;32.13;17.17;;;1.70;99.90;;;;;;5070722;28;20543;-71
2021/03/10 04:41:44;;;;;;;31.13;17.47;;;1.70;99.90;;;;;;5069574;28;20793;-71
2021/03/10 04:44:10;;;;;;;26.93;17.63;;;1.60;99.90;;;;;;5070594;28;20495;-71
2021/03/10 04:46:38;;;;;;;30.10;17.50;;;1.60;99.90;;;;;;5070722;28;20448;-71
2021/03/10 04:49:08;;;;;;;28.17;17.27;;;1.60;99.90;;;;;;5070536;28;20458;-71
2021/03/10 04:51:35;;;;;;;30.17;18.17;;;1.50;99.90;;;;;;5070368;28;20470;-71
2021/03/10 04:54:02;;;;;;;27.27;16.50;;;1.50;99.90;;;;;;5070599;28;20530;-71
2021/03/10 04:56:28;;;;;;;35.77;18.73;;;1.40;99.90;;;;;;5070421;28;20503;-71
2021/03/10 04:58:56;;;;;;;28.00;17.17;;;1.40;99.90;;;;;;5069968;28;20556;-70
2021/03/10 05:01:23;;;;;;;31.30;18.50;;;1.40;99.90;;;;;;5068228;28;20442;-70
2021/03/10 05:03:50;;;;;;;30.13;18.80;;;1.40;99.90;;;;;;5070293;28;20471;-71
2021/03/10 05:06:17;;;;;;;31.60;18.20;;;1.30;99.90;;;;;;5070585;28;20418;-71
2021/03/10 05:08:44;;;;;;;31.17;19.17;;;1.40;99.90;;;;;;5070244;28;20446;-71
2021/03/10 05:11:10;;;;;;;38.57;19.37;;;1.40;99.90;;;;;;5071318;28;20442;-70
2021/03/10 05:13:37;;;;;;;35.30;18.60;;;1.30;99.90;;;;;;5073789;28;20516;-70
2021/03/10 05:16:04;;;;;;;31.50;17.93;;;1.40;99.90;;;;;;5074230;28;20467;-71
2021/03/10 05:18:31;;;;;;;29.60;18.47;;;1.40;99.90;;;;;;5072659;28;21223;-71
2021/03/10 05:21:05;;;;;;;30.53;18.70;;;1.30;99.90;;;;;;5074072;28;20444;-71
2021/03/10 05:23:32;;;;;;;33.97;19.47;;;1.30;99.90;;;;;;5073645;28;20437;-71
2021/03/10 05:25:59;;;;;;;28.83;17.47;;;1.40;99.90;;;;;;5072848;28;20757;-71
2021/03/10 05:28:26;;;;;;;37.20;20.27;;;1.40;99.90;;;;;;5073610;28;20510;-72
2021/03/10 05:30:53;;;;;;;36.57;20.70;;;1.40;99.90;;;;;;5073650;28;20826;-71
2021/03/10 05:33:19;;;;;;;29.50;18.10;;;1.30;99.90;;;;;;5073321;28;20426;-71
2021/03/10 05:35:46;;;;;;;34.23;18.80;;;1.20;99.90;;;;;;5073537;28;20436;-71
2021/03/10 05:38:14;;;;;;;34.70;18.93;;;1.20;99.90;;;;;;5073458;28;20528;-70
2021/03/10 05:40:40;;;;;;;32.97;20.33;;;1.20;99.90;;;;;;5073470;28;20442;-71
2021/03/10 05:43:07;;;;;;;36.67;20.30;;;1.20;99.90;;;;;;5073231;28;20430;-71
2021/03/10 05:45:34;;;;;;;33.43;19.50;;;1.10;99.90;;;;;;5073182;28;20575;-71
2021/03/10 05:48:00;;;;;;;38.60;19.57;;;1.00;99.90;;;;;;5072951;28;20452;-71
2021/03/10 05:50:27;;;;;;;34.80;18.37;;;0.90;99.90;;;;;;5073329;28;20440;-71
2021/03/10 05:52:55;;;;;;;37.80;20.40;;;0.90;99.90;;;;;;5073287;28;20506;-70
2021/03/10 05:55:23;;;;;;;31.93;18.97;;;1.00;99.90;;;;;;5072211;28;20495;-71
2021/03/10 05:57:50;;;;;;;34.70;21.40;;;1.00;99.90;;;;;;5073004;28;20432;-71
2021/03/10 06:00:17;;;;;;;37.40;20.70;;;1.00;99.90;;;;;;5072273;28;20457;-71
2021/03/10 06:02:45;;;;;;;39.27;19.90;;;0.90;99.90;;;;;;5073036;28;20469;-72
2021/03/10 06:05:19;;;;;;;32.60;18.93;;;1.00;99.90;;;;;;5073280;28;20470;-71
2021/03/10 06:07:46;;;;;;;31.40;17.90;;;1.00;99.90;;;;;;5072883;28;20438;-72
2021/03/10 06:10:16;;;;;;;40.90;21.47;;;1.00;99.90;;;;;;5072773;28;20464;-72
2021/03/10 06:12:45;;;;;;;32.50;18.37;;;1.00;99.90;;;;;;5080555;28;20421;-71
2021/03/10 06:15:13;;;;;;;39.60;21.30;;;1.00;99.90;;;;;;5086464;28;20847;-71
2021/03/10 06:17:47;;;;;;;32.47;18.30;;;1.00;99.90;;;;;;5080614;28;20460;-69
2021/03/10 06:20:25;;;;;;;40.53;20.03;;;0.90;99.90;;;;;;5064118;28;20487;-68
2021/03/10 06:22:52;;;;;;;38.87;19.77;;;1.00;99.90;;;;;;5071530;28;20440;-67
2021/03/10 06:25:19;;;;;;;33.43;19.10;;;1.20;99.90;;;;;;5072224;28;20811;-68
2021/03/10 06:28:00;;;;;;;33.93;20.27;;;1.30;99.90;;;;;;5072439;28;20462;-68
2021/03/10 06:30:34;;;;;;;29.70;17.70;;;1.40;99.90;;;;;;5072511;28;20795;-68
2021/03/10 06:33:02;;;;;;;33.03;17.20;;;1.50;99.90;;;;;;5071766;28;20417;-68
2021/03/10 06:35:29;;;;;;;36.23;18.60;;;1.60;99.90;;;;;;5072164;28;20462;-68
2021/03/10 06:38:13;;;;;;;34.13;17.73;;;1.60;99.90;;;;;;5072300;28;20445;-67
2021/03/10 06:40:51;;;;;;;36.47;21.40;;;1.60;99.90;;;;;;5072148;28;20910;-68
2021/03/10 06:43:19;;;;;;;33.20;18.50;;;1.50;99.90;;;;;;5071720;28;20434;-68
2021/03/10 06:45:46;;;;;;;35.07;18.50;;;1.60;99.90;;;;;;5072081;28;20501;-68
2021/03/10 06:48:20;;;;;;;30.13;16.93;;;1.60;99.90;;;;;;5071369;28;20450;-68
2021/03/10 06:50:47;;;;;;;35.80;19.67;;;1.60;99.90;;;;;;5071943;28;20426;-68
2021/03/10 06:53:14;;;;;;;31.33;18.40;;;1.70;99.90;;;;;;5071529;28;20426;-68
2021/03/10 06:55:42;;;;;;;28.27;17.40;;;1.60;99.90;;;;;;5071369;28;20444;-68
2021/03/10 06:58:10;;;;;;;37.90;21.37;;;1.60;99.90;;;;;;5073541;28;20438;-67
2021/03/10 07:00:38;;;;;;;32.23;19.17;;;1.70;99.90;;;;;;5081149;28;20475;-67
2021/03/10 07:03:06;;;;;;;41.37;20.80;;;1.80;99.90;;;;;;5079346;28;20430;-67
2021/03/10 07:05:33;;;;;;;35.80;20.43;;;1.80;99.90;;;;;;5080942;28;20469;-67
2021/03/10 07:08:06;;;;;;;36.00;21.03;;;1.90;99.90;;;;;;5080788;28;20441;-67
2021/03/10 07:10:33;;;;;;;32.03;19.70;;;1.90;99.90;;;;;;5091618;28;20440;-67
2021/03/10 07:13:03;;;;;;;35.50;18.70;;;1.90;99.90;;;;;;5091135;28;20437;-67
2021/03/10 07:15:32;;;;;;;31.67;18.80;;;2.00;99.90;;;;;;5091554;28;20433;-67
2021/03/10 07:18:04;;;;;;;43.23;21.17;;;1.90;99.90;;;;;;5087695;28;20457;-67
2021/03/10 07:20:36;;;;;;;31.87;19.73;;;2.00;99.90;;;;;;5071292;28;20965;-67
2021/03/10 07:23:10;;;;;;;30.37;17.03;;;2.00;99.90;;;;;;5071428;28;20424;-67
2021/03/10 07:25:43;;;;;;;34.30;17.63;;;1.90;99.90;;;;;;5071152;28;20526;-67
2021/03/10 07:28:15;;;;;;;31.10;17.80;;;2.00;99.90;;;;;;5070387;28;20462;-67
2021/03/10 07:30:45;;;;;;;31.57;18.37;;;2.10;99.90;;;;;;5074251;28;20442;-67
2021/03/10 07:33:14;;;;;;;31.13;17.50;;;2.20;99.90;;;;;;5070878;28;20471;-66
2021/03/10 07:35:51;;;;;;;28.33;17.83;;;2.20;99.90;;;;;;5071004;28;20441;-66
2021/03/10 07:38:19;;;;;;;30.87;17.70;;;2.20;99.90;;;;;;5071211;28;20533;-66
2021/03/10 07:40:59;;;;;;;30.77;17.57;;;2.20;99.90;;;;;;5071238;28;20885;-67
2021/03/10 07:43:37;;;;;;;30.27;18.10;;;2.20;99.90;;;;;;5078664;28;20501;-66
2021/03/10 07:46:05;;;;;;;27.50;17.53;;;2.30;99.90;;;;;;5074886;28;20437;-67
2021/03/10 07:48:34;;;;;;;30.80;17.10;;;2.50;99.90;;;;;;5070630;28;20472;-66
2021/03/10 07:51:01;;;;;;;36.63;17.10;;;2.60;99.90;;;;;;5070868;28;20434;-66
2021/03/10 07:53:38;;;;;;;31.80;19.30;;;2.70;99.90;;;;;;5077386;28;20452;-67
2021/03/10 07:56:05;;;;;;;30.60;16.83;;;2.80;99.90;;;;;;5080142;28;20426;-67
2021/03/10 07:58:33;;;;;;;33.17;17.97;;;2.80;99.90;;;;;;5080392;28;20436;-67
2021/03/10 08:01:00;;;;;;;27.03;16.43;;;2.80;99.90;;;;;;5080988;28;20427;-67
2021/03/10 08:03:28;;;;;;;28.03;16.13;;;2.80;99.90;;;;;;5079642;28;20414;-66
2021/03/10 08:06:04;;;;;;;27.10;17.20;;;2.90;99.90;;;;;;5079755;28;20469;-67
2021/03/10 08:08:36;;;;;;;27.67;16.33;;;2.90;99.90;;;;;;5078921;28;20526;-67
2021/03/10 08:11:11;;;;;;;29.20;17.57;;;2.90;99.90;;;;;;5079305;28;20465;-67
2021/03/10 08:13:38;;;;;;;28.93;15.37;;;3.00;99.90;;;;;;5079435;28;20961;-67
2021/03/10 08:16:10;;;;;;;26.13;16.03;;;3.10;99.90;;;;;;5076966;28;20479;-67
2021/03/10 08:18:46;;;;;;;29.73;16.33;;;3.20;99.90;;;;;;5080511;28;20463;-67
2021/03/10 08:21:16;;;;;;;26.07;16.73;;;3.30;99.90;;;;;;5076957;28;20431;-67
2021/03/10 08:23:43;;;;;;;32.93;18.27;;;3.40;99.90;;;;;;5081124;28;20433;-66
2021/03/10 08:26:10;;;;;;;24.50;14.03;;;3.50;99.90;;;;;;5079879;28;20776;-67
2021/03/10 08:28:38;;;;;;;27.87;15.70;;;3.60;99.90;;;;;;5079339;28;20439;-67
2021/03/10 08:31:06;;;;;;;46.47;22.63;;;3.80;99.90;;;;;;5073146;28;20934;-67
2021/03/10 08:33:45;;;;;;;37.47;19.70;;;3.90;99.90;;;;;;5070202;28;20528;-67
2021/03/10 08:36:13;;;;;;;38.80;22.00;;;4.00;99.90;;;;;;5069397;28;20979;-67
2021/03/10 08:38:40;;;;;;;48.83;36.50;;;4.20;99.90;;;;;;5070383;28;20537;-67
2021/03/10 08:41:07;;;;;;;29.63;17.20;;;4.20;99.90;;;;;;5070381;28;20472;-67
2021/03/10 08:43:34;;;;;;;27.60;16.30;;;4.20;99.90;;;;;;5070125;28;20437;-67
2021/03/10 08:46:02;;;;;;;28.07;16.77;;;4.10;99.90;;;;;;5071103;28;20557;-67
2021/03/10 08:48:33;;;;;;;24.23;14.80;;;4.00;99.90;;;;;;5072348;28;20990;-67
2021/03/10 08:51:02;;;;;;;23.77;13.70;;;4.00;99.90;;;;;;5073881;28;20945;-67
2021/03/10 08:53:29;;;;;;;26.07;14.63;;;4.00;99.90;;;;;;5073347;28;20453;-67
2021/03/10 08:56:05;;;;;;;23.90;14.07;;;4.00;99.90;;;;;;5074490;28;21035;-67
2021/03/10 08:58:32;;;;;;;23.17;14.43;;;4.00;99.90;;;;;;5073486;28;20510;-67
2021/03/10 09:00:59;;;;;;;30.80;15.00;;;4.00;99.90;;;;;;5074019;28;20573;-67
2021/03/10 09:03:26;;;;;;;27.43;16.50;;;4.10;99.90;;;;;;5072473;28;20442;-67
2021/03/10 09:05:53;;;;;;;24.20;14.23;;;4.10;99.90;;;;;;5073568;28;20488;-67
2021/03/10 09:08:26;;;;;;;27.00;15.80;;;4.20;99.90;;;;;;5073565;28;20453;-67
2021/03/10 09:10:55;;;;;;;21.83;12.67;;;4.30;99.90;;;;;;5084939;28;20425;-67
2021/03/10 09:13:22;;;;;;;26.33;14.17;;;4.30;99.90;;;;;;5087614;28;20488;-67
2021/03/10 09:15:50;;;;;;;27.47;14.60;;;4.30;99.90;;;;;;5093853;28;20528;-67
2021/03/10 09:18:17;;;;;;;25.03;15.90;;;4.40;99.90;;;;;;5093933;28;20468;-67
2021/03/10 09:20:45;;;;;;;25.00;15.10;;;4.50;99.90;;;;;;5089005;28;20595;-67
2021/03/10 09:23:12;;;;;;;27.47;15.20;;;4.60;99.90;;;;;;5073459;28;20849;-67
2021/03/10 09:25:41;;;;;;;28.90;15.80;;;4.60;99.90;;;;;;5073507;28;20474;-67
2021/03/10 09:28:11;;;;;;;22.70;14.60;;;4.70;99.90;;;;;;5072522;28;20448;-67
2021/03/10 09:30:39;;;;;;;25.90;15.63;;;4.90;99.90;;;;;;5073641;28;20422;-67
2021/03/10 09:33:06;;;;;;;30.13;16.37;;;5.00;99.90;;;;;;5083902;28;20461;-68
2021/03/10 09:35:37;;;;;;;26.17;14.97;;;5.00;99.90;;;;;;5094279;28;20785;-67
2021/03/10 09:38:06;;;;;;;24.13;13.93;;;5.20;99.90;;;;;;5084124;28;20433;-67
2021/03/10 09:40:39;;;;;;;29.73;15.57;;;5.20;99.90;;;;;;5073469;28;20430;-68
2021/03/10 09:43:09;;;;;;;26.03;15.10;;;5.30;99.90;;;;;;5082184;28;20427;-67
2021/03/10 09:45:38;;;;;;;28.37;15.77;;;5.40;99.90;;;;;;5073214;28;20473;-67
2021/03/10 09:48:15;;;;;;;20.37;14.50;;;5.30;99.90;;;;;;5073216;28;20715;-67
2021/03/10 09:50:53;;;;;;;23.20;14.53;;;5.50;99.90;;;;;;5073607;28;20439;-67
2021/03/10 09:53:25;;;;;;;19.33;12.43;;;5.30;99.90;;;;;;5073188;28;20432;-67
2021/03/10 09:55:52;;;;;;;19.50;12.40;;;5.10;99.90;;;;;;5073699;28;20830;-67
2021/03/10 09:58:20;;;;;;;21.37;14.20;;;5.10;99.90;;;;;;5070886;28;20466;-67
2021/03/10 10:00:58;;;;;;;16.73;11.50;;;5.20;99.90;;;;;;5073614;28;20506;-67
2021/03/10 10:03:26;;;;;;;17.63;10.80;;;5.10;99.90;;;;;;5072809;28;20444;-69
2021/03/10 10:06:03;;;;;;;20.90;11.73;;;5.20;99.90;;;;;;5072471;28;20471;-69
2021/03/10 10:08:30;;;;;;;15.80;10.33;;;5.30;99.90;;;;;;5072716;28;20514;-68
2021/03/10 10:10:56;;;;;;;18.40;10.30;;;5.50;99.90;;;;;;5072809;28;20484;-68
2021/03/10 10:13:24;;;;;;;18.67;10.80;;;5.40;99.90;;;;;;5072199;28;20437;-68
2021/03/10 10:15:51;;;;;;;14.70;9.40;;;5.70;99.90;;;;;;5071631;28;20486;-68
2021/03/10 10:18:17;;;;;;;16.67;10.23;;;5.40;99.90;;;;;;5072851;28;20468;-68
2021/03/10 10:20:44;;;;;;;14.60;9.80;;;5.40;99.90;;;;;;5072549;28;20466;-68
2021/03/10 10:23:11;;;;;;;11.30;7.70;;;5.30;99.90;;;;;;5072772;28;20433;-69
2021/03/10 10:25:38;;;;;;;12.37;8.33;;;5.30;99.90;;;;;;5071353;28;20854;-69
2021/03/10 10:28:05;;;;;;;20.03;10.63;;;5.30;99.90;;;;;;5071731;28;20528;-69
2021/03/10 10:30:32;;;;;;;21.37;11.20;;;5.10;99.90;;;;;;5071719;28;20950;-68
2021/03/10 10:32:59;;;;;;;20.33;11.73;;;5.00;99.90;;;;;;5072028;28;20437;-69
2021/03/10 10:35:28;;;;;;;20.37;11.07;;;5.00;99.90;;;;;;5072105;28;20440;-69
2021/03/10 10:37:55;;;;;;;29.20;16.90;;;5.10;99.90;;;;;;5071552;28;20442;-68
2021/03/10 10:40:23;;;;;;;22.10;12.33;;;5.10;99.90;;;;;;5071533;28;20432;-69
2021/03/10 10:42:56;;;;;;;21.10;12.83;;;5.20;99.90;;;;;;5072042;28;20465;-69
2021/03/10 10:45:22;;;;;;;20.43;12.27;;;5.50;99.90;;;;;;5072005;28;20473;-68
2021/03/10 10:47:50;;;;;;;27.00;13.00;;;5.60;99.90;;;;;;5071219;28;20459;-68
2021/03/10 10:50:17;;;;;;;24.53;12.67;;;5.90;99.90;;;;;;5071815;28;20449;-68
2021/03/10 10:52:44;;;;;;;21.90;13.13;;;6.00;99.90;;;;;;5071140;28;20452;-70
2021/03/10 10:55:13;;;;;;;21.40;12.60;;;6.20;99.90;;;;;;5068587;28;20536;-69
2021/03/10 10:57:41;;;;;;;17.37;11.73;;;6.30;99.90;;;;;;5071653;28;20482;-69
2021/03/10 11:00:09;;;;;;;18.43;12.00;;;6.50;99.90;;;;;;5071998;28;20442;-70
2021/03/10 11:02:36;;;;;;;20.40;12.00;;;6.70;99.90;;;;;;5070895;28;20954;-70
2021/03/10 11:05:08;;;;;;;25.20;13.97;;;6.80;99.90;;;;;;5071434;28;20466;-70
2021/03/10 11:07:35;;;;;;;19.80;12.17;;;7.00;99.90;;;;;;5071577;28;20442;-70
2021/03/10 11:10:01;;;;;;;17.20;11.37;;;7.20;99.90;;;;;;5071370;28;20442;-71
2021/03/10 11:12:29;;;;;;;17.00;10.90;;;7.20;99.90;;;;;;5071488;28;20842;-71
2021/03/10 11:14:56;;;;;;;14.90;10.47;;;6.90;99.90;;;;;;5071101;28;20443;-69
2021/03/10 11:17:23;;;;;;;16.80;10.93;;;6.80;99.90;;;;;;5071404;28;20422;-70
2021/03/10 11:19:50;;;;;;;19.50;12.20;;;6.50;99.90;;;;;;5070837;28;20564;-68
2021/03/10 11:22:19;;;;;;;18.80;13.17;;;6.40;99.90;;;;;;5070185;28;20439;-71
2021/03/10 11:24:46;;;;;;;18.30;11.47;;;6.30;99.90;;;;;;5071086;28;20469;-69
2021/03/10 11:27:17;;;;;;;20.13;12.13;;;6.30;99.90;;;;;;5069958;28;20799;-70
2021/03/10 11:29:44;;;;;;;17.93;10.83;;;6.10;99.90;;;;;;5071124;28;20525;-69
2021/03/10 11:32:13;;;;;;;18.53;10.70;;;6.10;99.90;;;;;;5070945;28;20438;-70
2021/03/10 11:34:40;;;;;;;21.63;11.67;;;6.00;99.90;;;;;;5070205;28;21017;-68
2021/03/10 11:37:08;;;;;;;19.00;12.07;;;6.10;99.90;;;;;;5071283;28;20431;-70
2021/03/10 11:39:39;;;;;;;22.40;11.90;;;6.20;99.90;;;;;;5070963;28;20850;-69
2021/03/10 11:42:07;;;;;;;19.20;13.40;;;6.30;99.90;;;;;;5070716;28;20500;-70
2021/03/10 11:44:35;;;;;;;17.77;12.27;;;6.40;99.90;;;;;;5070198;28;20472;-71
2021/03/10 11:47:02;;;;;;;25.60;11.73;;;6.50;99.90;;;;;;5070885;28;20925;-69
2021/03/10 11:49:29;;;;;;;15.73;10.37;;;6.80;99.90;;;;;;5070360;28;20834;-70
2021/03/10 11:51:58;;;;;;;16.80;11.83;;;7.00;99.90;;;;;;5070629;28;20446;-69
2021/03/10 11:54:25;;;;;;;18.10;10.70;;;7.10;99.90;;;;;;5070751;28;20833;-70
2021/03/10 11:56:53;;;;;;;17.30;10.03;;;7.20;99.90;;;;;;5070728;28;20548;-70
2021/03/10 11:59:23;;;;;;;20.70;12.07;;;7.10;99.90;;;;;;5070740;28;20453;-69
2021/03/10 12:01:51;;;;;;;17.30;11.77;;;7.00;99.90;;;;;;5070677;28;20506;-68
2021/03/10 12:04:18;;;;;;;16.20;10.20;;;7.20;99.90;;;;;;5069568;28;20450;-70
2021/03/10 12:06:47;;;;;;;16.90;10.40;;;7.40;99.90;;;;;;5075287;28;20465;-69
2021/03/10 12:09:14;;;;;;;21.00;10.60;;;7.50;99.90;;;;;;5090507;28;20450;-69
2021/03/10 12:11:41;;;;;;;23.33;14.60;;;7.60;99.90;;;;;;5090453;28;20863;-70
2021/03/10 12:14:11;;;;;;;16.37;9.03;;;7.50;99.90;;;;;;5050330;28;20439;-69
2021/03/10 12:16:37;;;;;;;17.20;10.57;;;7.50;99.90;;;;;;5049983;28;20431;-69
2021/03/10 12:19:05;;;;;;;12.57;8.53;;;7.30;99.90;;;;;;5065341;28;20846;-69
2021/03/10 12:21:34;;;;;;;16.77;10.00;;;7.60;99.90;;;;;;5071523;28;20878;-68
2021/03/10 12:24:01;;;;;;;15.20;9.30;;;7.70;99.90;;;;;;5075222;28;20444;-70
2021/03/10 12:26:30;;;;;;;14.20;9.80;;;7.30;99.90;;;;;;5094780;28;20485;-70
2021/03/10 12:29:07;;;;;;;14.73;9.47;;;7.20;99.90;;;;;;5094851;28;20553;-68
2021/03/10 12:31:38;;;;;;;13.83;9.07;;;7.40;99.90;;;;;;5094475;28;20418;-69
2021/03/10 12:34:08;;;;;;;16.30;9.40;;;7.60;99.90;;;;;;5094605;28;20447;-68
2021/03/10 12:36:34;;;;;;;14.80;9.50;;;7.80;99.90;;;;;;5094396;28;20472;-68
2021/03/10 12:39:02;;;;;;;16.20;9.77;;;7.90;99.90;;;;;;5094519;28;20468;-69
2021/03/10 12:41:29;;;;;;;15.33;11.50;;;8.00;99.90;;;;;;5082215;28;20450;-69
2021/03/10 12:43:56;;;;;;;15.27;9.20;;;8.00;99.90;;;;;;5074307;28;20928;-69
2021/03/10 12:46:23;;;;;;;10.93;7.60;;;8.00;99.90;;;;;;5072938;28;20468;-68